TAF KFST
KFST 081720Z 0818/0918 21010KT P6SM SCT250=
METAR KFST
WC KFST
WS KFST
WV KFST